createdAt,value
2023-04-08T00:02:22.146Z,99745.88
2023-04-08T00:04:51.041Z,99744.21
2023-04-08T00:07:19.515Z,99744.95
2023-04-08T00:09:47.717Z,99739.86
2023-04-08T00:12:16.238Z,99736.02
2023-04-08T00:14:44.407Z,99735.36
2023-04-08T00:17:13.305Z,99742.97
2023-04-08T00:19:41.912Z,99741.48
2023-04-08T00:22:11.753Z,99744.59
2023-04-08T00:24:40.981Z,99746.29
2023-04-08T00:27:13.775Z,99746.95
2023-04-08T00:29:42.956Z,99752.17
2023-04-08T00:32:11.158Z,99754.60
2023-04-08T00:34:39.476Z,99756.68
2023-04-08T00:37:07.994Z,99753.38
2023-04-08T00:39:37.509Z,99750.29
2023-04-08T00:42:05.729Z,99758.55
2023-04-08T00:44:34.110Z,99758.73
2023-04-08T00:47:03.674Z,99760.97
2023-04-08T00:49:32.711Z,99763.19
2023-04-08T00:52:01.564Z,99762.66
2023-04-08T00:54:31.957Z,99762.14
2023-04-08T00:57:01.455Z,99753.98
2023-04-08T00:59:31.586Z,99760.45
2023-04-08T01:02:12.589Z,99758.00
2023-04-08T01:04:53.744Z,99758.84
2023-04-08T01:07:34.051Z,99754.09
2023-04-08T01:10:18.783Z,99750.78
2023-04-08T01:12:55.332Z,99751.94
2023-04-08T01:15:27.126Z,99754.72
2023-04-08T01:17:58.925Z,99756.23
2023-04-08T01:20:28.985Z,99758.27
2023-04-08T01:23:02.296Z,99757.99
2023-04-08T01:25:36.799Z,99757.53
2023-04-08T01:28:12.473Z,99751.87
2023-04-08T01:30:42.751Z,99750.76
2023-04-08T01:33:13.771Z,99745.73
2023-04-08T01:35:47.457Z,99742.33
2023-04-08T01:38:20.240Z,99735.86
2023-04-08T01:40:51.261Z,99740.31
2023-04-08T01:43:20.573Z,99741.43
2023-04-08T01:45:50.456Z,99740.79
2023-04-08T01:48:20.918Z,99738.62
2023-04-08T01:50:51.505Z,99738.64
2023-04-08T01:53:20.098Z,99738.66
2023-04-08T01:55:55.858Z,99738.80
2023-04-08T01:58:28.233Z,99738.02
2023-04-08T02:00:59.075Z,99739.29
2023-04-08T02:03:31.356Z,99738.52
2023-04-08T02:06:00.061Z,99738.77
2023-04-08T02:08:28.345Z,99742.02
2023-04-08T02:10:57.216Z,99741.74
2023-04-08T02:13:26.115Z,99740.03
2023-04-08T02:16:03.376Z,99738.50
2023-04-08T02:18:36.451Z,99739.01
2023-04-08T02:21:14.756Z,99739.48
2023-04-08T02:23:51.443Z,99734.14
2023-04-08T02:26:22.385Z,99729.38
2023-04-08T02:28:52.629Z,99728.71
2023-04-08T02:31:24.803Z,99727.29
2023-04-08T02:33:56.128Z,99726.05
2023-04-08T02:36:26.113Z,99729.59
2023-04-08T02:38:56.283Z,99729.36
2023-04-08T02:41:29.183Z,99727.02
2023-04-08T02:43:58.259Z,99728.29
2023-04-08T02:46:28.319Z,99731.37
2023-04-08T02:48:56.812Z,99732.70
2023-04-08T02:51:25.163Z,99740.70
2023-04-08T02:53:54.429Z,99744.67
2023-04-08T02:56:22.826Z,99747.67
2023-04-08T02:58:52.394Z,99750.58
2023-04-08T03:01:21.373Z,99749.73
2023-04-08T03:03:50.747Z,99748.85
2023-04-08T03:06:19.025Z,99748.58
2023-04-08T03:08:47.607Z,99746.48
2023-04-08T03:11:17.601Z,99751.99
2023-04-08T03:13:46.994Z,99756.30
2023-04-08T03:16:19.989Z,99756.19
2023-04-08T03:18:53.751Z,99758.31
2023-04-08T03:21:21.934Z,99760.96
2023-04-08T03:23:50.640Z,99754.83
2023-04-08T03:26:19.392Z,99759.70
2023-04-08T03:28:48.161Z,99759.52
2023-04-08T03:31:16.724Z,99763.98
2023-04-08T03:33:45.360Z,99762.89
2023-04-08T03:36:13.660Z,99764.75
2023-04-08T03:38:42.383Z,99758.52
2023-04-08T03:41:11.063Z,99760.56
2023-04-08T03:43:41.364Z,99753.68
2023-04-08T03:46:09.847Z,99756.02
2023-04-08T03:48:40.985Z,99753.13
2023-04-08T03:51:09.274Z,99760.63
2023-04-08T03:53:42.171Z,99759.91
2023-04-08T03:56:10.787Z,99765.55
2023-04-08T03:58:39.432Z,99768.95
2023-04-08T04:01:07.846Z,99769.52
2023-04-08T04:03:37.127Z,99767.30
2023-04-08T04:06:05.848Z,99765.80
2023-04-08T04:08:34.452Z,99764.82
2023-04-08T04:11:03.309Z,99768.48
2023-04-08T04:13:31.534Z,99768.17
2023-04-08T04:16:01.788Z,99772.27
2023-04-08T04:18:30.794Z,99773.34
2023-04-08T04:20:59.187Z,99772.00
2023-04-08T04:23:27.500Z,99777.54
2023-04-08T04:25:56.105Z,99776.45
2023-04-08T04:28:25.624Z,99775.40
2023-04-08T04:30:55.921Z,99779.77
2023-04-08T04:33:26.545Z,99787.65
2023-04-08T04:35:55.091Z,99788.45
2023-04-08T04:38:23.673Z,99784.61
2023-04-08T04:40:51.938Z,99784.17
2023-04-08T04:43:21.197Z,99790.69
2023-04-08T04:45:52.963Z,99787.36
2023-04-08T04:48:21.511Z,99785.99
2023-04-08T04:50:57.272Z,99785.59
2023-04-08T04:53:26.130Z,99791.08
2023-04-08T04:55:54.610Z,99797.34
2023-04-08T04:58:23.108Z,99798.84
2023-04-08T05:00:53.036Z,99804.65
2023-04-08T05:03:22.438Z,99802.91
2023-04-08T05:05:55.588Z,99803.69
2023-04-08T05:08:27.717Z,99805.29
2023-04-08T05:10:56.987Z,99805.13
2023-04-08T05:13:28.173Z,99806.20
2023-04-08T05:15:58.941Z,99802.91
2023-04-08T05:18:27.488Z,99808.35
2023-04-08T05:20:58.830Z,99811.80
2023-04-08T05:23:27.247Z,99818.65
2023-04-08T05:25:56.285Z,99823.46
2023-04-08T05:28:28.382Z,99824.88
2023-04-08T05:30:56.898Z,99821.88
2023-04-08T05:33:26.676Z,99823.48
2023-04-08T05:35:59.406Z,99827.64
2023-04-08T05:38:27.747Z,99826.20
2023-04-08T05:40:57.720Z,99825.63
2023-04-08T05:43:26.232Z,99824.88
2023-04-08T05:45:59.289Z,99826.50
2023-04-08T05:48:29.102Z,99823.46
2023-04-08T05:50:57.679Z,99820.48
2023-04-08T05:53:28.091Z,99814.57
2023-04-08T05:55:56.405Z,99821.77
2023-04-08T05:58:25.478Z,99825.37
2023-04-08T06:00:55.761Z,99821.00
2023-04-08T06:03:26.203Z,99819.77
2023-04-08T06:05:55.135Z,99817.20
2023-04-08T06:08:24.901Z,99820.20
2023-04-08T06:10:53.324Z,99818.54
2023-04-08T06:13:25.692Z,99822.23
2023-04-08T06:15:54.284Z,99821.67
2023-04-08T06:18:23.009Z,99822.08
2023-04-08T06:20:51.248Z,99824.82
2023-04-08T06:23:19.556Z,99825.08
2023-04-08T06:25:48.010Z,99824.40
2023-04-08T06:28:16.327Z,99825.31
2023-04-08T06:30:47.445Z,99829.88
2023-04-08T06:33:16.201Z,99833.71
2023-04-08T06:35:45.574Z,99833.20
2023-04-08T06:38:14.434Z,99828.23
2023-04-08T06:40:44.005Z,99833.77
2023-04-08T06:43:12.697Z,99834.95
2023-04-08T06:45:43.069Z,99837.90
2023-04-08T06:48:12.382Z,99839.71
2023-04-08T06:50:46.707Z,99843.16
2023-04-08T06:53:15.801Z,99841.66
2023-04-08T06:55:44.392Z,99839.73
2023-04-08T06:58:13.908Z,99842.42
2023-04-08T07:00:43.212Z,99845.31
2023-04-08T07:03:14.738Z,99843.85
2023-04-08T07:05:44.004Z,99844.98
2023-04-08T07:08:12.484Z,99842.77
2023-04-08T07:10:42.203Z,99847.60
2023-04-08T07:13:11.783Z,99847.08
2023-04-08T07:15:42.876Z,99851.29
2023-04-08T07:18:14.475Z,99856.77
2023-04-08T07:20:43.347Z,99858.70
2023-04-08T07:23:12.816Z,99859.96
2023-04-08T07:25:41.636Z,99857.20
2023-04-08T07:28:10.219Z,99857.80
2023-04-08T07:30:39.428Z,99861.11
2023-04-08T07:33:08.079Z,99856.66
2023-04-08T07:35:38.528Z,99859.46
2023-04-08T07:38:11.715Z,99862.79
2023-04-08T07:40:40.220Z,99863.88
2023-04-08T07:43:09.846Z,99864.04
2023-04-08T07:45:38.106Z,99864.77
2023-04-08T07:48:08.632Z,99860.73
2023-04-08T07:51:08.914Z,99861.41
2023-04-08T07:53:28.797Z,99859.65
2023-04-08T07:55:57.166Z,99856.38
2023-04-08T07:58:26.626Z,99856.27
2023-04-08T08:00:55.634Z,99862.02
2023-04-08T08:03:25.786Z,99864.87
2023-04-08T08:05:54.257Z,99857.58
2023-04-08T08:08:22.516Z,99860.09
2023-04-08T08:10:50.774Z,99863.65
2023-04-08T08:13:22.231Z,99861.46
2023-04-08T08:15:54.033Z,99867.09
2023-04-08T08:18:23.275Z,99866.85
2023-04-08T08:20:51.580Z,99868.38
2023-04-08T08:23:22.293Z,99867.25
2023-04-08T08:25:58.981Z,99867.92
2023-04-08T08:28:34.039Z,99869.95
2023-04-08T08:31:03.721Z,99867.85
2023-04-08T08:33:33.235Z,99868.56
2023-04-08T08:36:05.869Z,99865.85
2023-04-08T08:38:35.951Z,99863.90
2023-04-08T08:41:05.037Z,99862.57
2023-04-08T08:43:34.303Z,99861.98
2023-04-08T08:46:03.850Z,99863.54
2023-04-08T08:48:34.184Z,99866.31
2023-04-08T08:51:09.423Z,99859.94
2023-04-08T08:53:39.240Z,99860.08
2023-04-08T08:58:41.120Z,99855.66
2023-04-08T09:01:41.725Z,99861.23
2023-04-08T09:04:11.973Z,99861.66
2023-04-08T09:06:44.474Z,99861.58
2023-04-08T09:09:14.065Z,99856.98
2023-04-08T09:11:47.390Z,99856.64
2023-04-08T09:14:25.914Z,99859.34
2023-04-08T09:16:54.673Z,99861.39
2023-04-08T09:19:31.428Z,99858.04
2023-04-08T09:22:10.894Z,99856.52
2023-04-08T09:24:39.247Z,99858.77
2023-04-08T09:27:07.942Z,99860.51
2023-04-08T09:29:39.855Z,99858.94
2023-04-08T09:32:09.242Z,99864.60
2023-04-08T09:34:37.864Z,99867.12
2023-04-08T09:37:07.386Z,99866.67
2023-04-08T09:39:39.108Z,99861.16
2023-04-08T09:42:12.134Z,99864.15
2023-04-08T09:44:44.944Z,99865.70
2023-04-08T09:47:23.936Z,99869.05
2023-04-08T09:49:58.641Z,99875.41
2023-04-08T09:52:47.163Z,99874.17
2023-04-08T09:55:22.077Z,99875.36
2023-04-08T09:57:50.458Z,99875.10
2023-04-08T10:00:19.830Z,99879.76
2023-04-08T10:02:58.676Z,99884.72
2023-04-08T10:05:28.168Z,99875.50
2023-04-08T10:07:59.015Z,99883.46
2023-04-08T10:10:28.061Z,99881.70
2023-04-08T10:12:58.354Z,99878.27
2023-04-08T10:15:28.222Z,99885.79
2023-04-08T10:18:08.048Z,99880.94
2023-04-08T10:20:43.355Z,99876.71
2023-04-08T10:23:14.035Z,99878.17
2023-04-08T10:25:48.189Z,99870.27
2023-04-08T10:28:25.255Z,99874.38
2023-04-08T10:30:55.835Z,99877.18
2023-04-08T10:33:33.710Z,99875.30
2023-04-08T10:36:10.387Z,99877.02
2023-04-08T10:38:39.863Z,99878.44
2023-04-08T10:41:14.557Z,99874.97
2023-04-08T10:43:43.149Z,99875.98
2023-04-08T10:46:13.150Z,99875.92
2023-04-08T10:48:41.837Z,99878.70
2023-04-08T10:51:14.270Z,99877.45
2023-04-08T10:53:45.735Z,99875.16
2023-04-08T10:56:16.690Z,99871.41
2023-04-08T10:58:51.597Z,99870.60
2023-04-08T11:01:20.751Z,99868.11
2023-04-08T11:03:50.486Z,99867.92
2023-04-08T11:06:20.256Z,99866.34
2023-04-08T11:08:48.686Z,99866.33
2023-04-08T11:11:17.433Z,99860.86
2023-04-08T11:13:53.473Z,99854.78
2023-04-08T11:16:23.266Z,99855.95
2023-04-08T11:18:52.128Z,99858.81
2023-04-08T11:21:22.477Z,99851.67
2023-04-08T11:23:52.296Z,99856.60
2023-04-08T11:26:21.296Z,99847.27
2023-04-08T11:28:52.131Z,99839.70
2023-04-08T11:31:24.663Z,99837.06
2023-04-08T11:33:57.589Z,99840.90
2023-04-08T11:36:27.413Z,99833.92
2023-04-08T11:38:56.129Z,99836.21
2023-04-08T11:41:36.410Z,99829.77
2023-04-08T11:44:06.985Z,99827.15
2023-04-08T11:46:38.056Z,99821.65
2023-04-08T11:49:08.821Z,99813.59
2023-04-08T11:51:55.234Z,99815.46
2023-04-08T11:54:32.086Z,99812.13
2023-04-08T11:57:01.018Z,99809.91
2023-04-08T11:59:31.827Z,99804.55
2023-04-08T12:02:02.205Z,99800.31
2023-04-08T12:04:31.274Z,99798.26
2023-04-08T12:07:02.188Z,99792.97
2023-04-08T12:09:30.697Z,99798.59
2023-04-08T12:11:59.601Z,99794.58
2023-04-08T12:14:29.252Z,99793.68
2023-04-08T12:16:58.380Z,99785.69
2023-04-08T12:19:34.433Z,99786.77
2023-04-08T12:22:04.759Z,99781.03
2023-04-08T12:24:33.457Z,99776.88
2023-04-08T12:27:10.560Z,99776.10
2023-04-08T12:29:40.142Z,99777.34
2023-04-08T12:32:08.440Z,99774.75
2023-04-08T12:34:38.276Z,99766.36
2023-04-08T12:37:06.807Z,99767.36
2023-04-08T12:39:40.536Z,99764.34
2023-04-08T12:42:09.549Z,99766.77
2023-04-08T12:44:37.787Z,99758.94
2023-04-08T12:47:06.588Z,99749.09
2023-04-08T12:49:46.677Z,99746.76
2023-04-08T12:52:24.376Z,99741.04
2023-04-08T12:54:53.164Z,99767.30
2023-04-08T12:57:21.544Z,99767.08
2023-04-08T12:59:49.845Z,99763.95
2023-04-08T13:02:18.140Z,99757.39
2023-04-08T13:04:46.741Z,99770.70
2023-04-08T13:07:15.514Z,99777.31
2023-04-08T13:09:45.464Z,99775.62
2023-04-08T13:12:18.874Z,99783.89
2023-04-08T13:14:48.108Z,99787.02
2023-04-08T13:17:16.607Z,99786.02
2023-04-08T13:19:45.110Z,99790.66
2023-04-08T13:22:14.277Z,99783.30
2023-04-08T13:24:47.070Z,99789.09
2023-04-08T13:27:15.520Z,99784.67
2023-04-08T13:29:43.756Z,99785.15
2023-04-08T13:32:12.450Z,99784.45
2023-04-08T13:34:42.675Z,99782.27
2023-04-08T13:37:11.555Z,99785.42
2023-04-08T13:39:41.638Z,99790.04
2023-04-08T13:42:10.182Z,99799.30
2023-04-08T13:44:39.510Z,99800.91
2023-04-08T13:47:07.718Z,99803.00
2023-04-08T13:49:37.217Z,99803.75
2023-04-08T13:52:05.588Z,99802.60
2023-04-08T13:54:36.475Z,99799.95
2023-04-08T13:57:05.333Z,99791.65
2023-04-08T13:59:33.699Z,99797.66
2023-04-08T14:02:02.329Z,99804.27
2023-04-08T14:04:31.806Z,99795.68
2023-04-08T14:07:01.178Z,99798.14
2023-04-08T14:09:29.606Z,99800.23
2023-04-08T14:11:59.066Z,99801.52
2023-04-08T14:14:27.245Z,99805.21
2023-04-08T14:16:56.374Z,99801.75
2023-04-08T14:19:25.158Z,99804.89
2023-04-08T14:21:55.362Z,99793.70
2023-04-08T14:24:23.573Z,99790.36
2023-04-08T14:26:51.853Z,99783.65
2023-04-08T14:29:21.076Z,99778.52
2023-04-08T14:31:49.628Z,99776.95
2023-04-08T14:34:17.876Z,99778.09
2023-04-08T14:36:46.701Z,99780.75
2023-04-08T14:39:15.507Z,99783.95
2023-04-08T14:41:44.875Z,99784.39
2023-04-08T14:44:13.067Z,99783.58
2023-04-08T14:46:42.307Z,99785.17
2023-04-08T14:49:10.977Z,99781.19
2023-04-08T14:51:39.335Z,99777.06
2023-04-08T14:54:07.721Z,99775.46
2023-04-08T14:56:36.500Z,99773.83
2023-04-08T14:59:06.249Z,99782.29
2023-04-08T15:01:35.923Z,99781.54
2023-04-08T15:04:04.839Z,99782.75
2023-04-08T15:06:33.351Z,99782.98
2023-04-08T15:09:02.502Z,99785.08
2023-04-08T15:11:31.007Z,99788.92
2023-04-08T15:13:59.510Z,99792.66
2023-04-08T15:16:28.415Z,99799.13
2023-04-08T15:18:59.921Z,99806.13
2023-04-08T15:21:29.482Z,99812.98
2023-04-08T15:23:58.714Z,99812.95
2023-04-08T15:26:27.978Z,99822.59
2023-04-08T15:28:59.161Z,99820.91
2023-04-08T15:31:27.687Z,99821.78
2023-04-08T15:33:56.548Z,99827.61
2023-04-08T15:36:25.196Z,99831.53
2023-04-08T15:38:53.869Z,99826.85
2023-04-08T15:41:22.914Z,99831.82
2023-04-08T15:43:53.365Z,99826.77
2023-04-08T15:46:21.786Z,99824.88
2023-04-08T15:48:50.991Z,99828.73
2023-04-08T15:51:20.616Z,99826.52
2023-04-08T15:53:50.526Z,99835.83
2023-04-08T15:56:19.361Z,99838.39
2023-04-08T15:58:47.871Z,99840.63
2023-04-08T16:01:17.147Z,99845.66
2023-04-08T16:03:49.326Z,99844.88
2023-04-08T16:06:17.689Z,99849.33
2023-04-08T16:08:47.295Z,99851.60
2023-04-08T16:11:15.881Z,99851.88
2023-04-08T16:13:46.339Z,99848.86
2023-04-08T16:16:15.215Z,99845.45
2023-04-08T16:18:49.332Z,99849.05
2023-04-08T16:21:18.670Z,99851.61
2023-04-08T16:23:46.903Z,99853.20
2023-04-08T16:26:16.120Z,99852.48
2023-04-08T16:28:46.124Z,99855.45
2023-04-08T16:31:14.365Z,99856.02
2023-04-08T16:33:42.764Z,99860.08
2023-04-08T16:36:11.495Z,99861.58
2023-04-08T16:38:44.443Z,99859.11
2023-04-08T16:41:12.914Z,99858.68
2023-04-08T16:43:41.541Z,99862.23
2023-04-08T16:46:16.219Z,99864.17
2023-04-08T16:48:45.128Z,99862.77
2023-04-08T16:51:13.566Z,99862.16
2023-04-08T16:53:42.760Z,99859.89
2023-04-08T16:56:17.769Z,99861.42
2023-04-08T16:58:46.874Z,99861.21
2023-04-08T17:01:21.306Z,99863.98
2023-04-08T17:03:52.381Z,99867.20
2023-04-08T17:06:20.982Z,99877.19
2023-04-08T17:08:49.662Z,99880.63
2023-04-08T17:11:18.389Z,99881.78
2023-04-08T17:13:47.117Z,99889.48
2023-04-08T17:16:19.052Z,99886.21
2023-04-08T17:18:50.542Z,99884.68
2023-04-08T17:21:20.270Z,99882.35
2023-04-08T17:23:52.594Z,99885.15
2023-04-08T17:26:25.083Z,99886.48
2023-04-08T17:28:53.972Z,99893.16
2023-04-08T17:31:22.904Z,99891.91
2023-04-08T17:33:51.662Z,99894.76
2023-04-08T17:36:20.107Z,99898.98
2023-04-08T17:38:49.624Z,99902.52
2023-04-08T17:41:29.894Z,99907.36
2023-04-08T17:44:07.223Z,99909.52
2023-04-08T17:46:35.735Z,99911.67
2023-04-08T17:49:11.325Z,99915.16
2023-04-08T17:51:40.468Z,99918.66
2023-04-08T17:54:09.055Z,99924.48
2023-04-08T17:56:40.017Z,99931.16
2023-04-08T17:59:08.970Z,99929.98
2023-04-08T18:01:39.837Z,99932.14
2023-04-08T18:04:10.564Z,99939.88
2023-04-08T18:06:39.631Z,99945.20
2023-04-08T18:09:07.940Z,99951.36
2023-04-08T18:11:38.648Z,99958.35
2023-04-08T18:14:07.095Z,99952.59
2023-04-08T18:16:44.493Z,99961.73
2023-04-08T18:19:14.434Z,99943.89
2023-04-08T18:21:42.622Z,99947.15
2023-04-08T18:24:11.227Z,99945.97
2023-04-08T18:26:39.523Z,99949.55
2023-04-08T18:29:08.075Z,99957.83
2023-04-08T18:31:37.444Z,99952.01
2023-04-08T18:34:05.726Z,99950.45
2023-04-08T18:36:34.443Z,99958.64
2023-04-08T18:39:03.204Z,99965.10
2023-04-08T18:41:32.980Z,99977.63
2023-04-08T18:44:03.273Z,99979.37
2023-04-08T18:46:31.716Z,99986.70
2023-04-08T18:49:00.132Z,99984.20
2023-04-08T18:51:29.529Z,99975.48
2023-04-08T18:53:58.181Z,99968.79
2023-04-08T18:56:26.796Z,99966.14
2023-04-08T18:58:55.346Z,99958.19
2023-04-08T19:01:23.751Z,99953.36
2023-04-08T19:03:53.249Z,99946.96
2023-04-08T19:06:22.907Z,99950.19
2023-04-08T19:08:51.340Z,99954.45
2023-04-08T19:11:26.596Z,99949.95
2023-04-08T19:13:56.745Z,99949.80
2023-04-08T19:16:26.907Z,99953.02
2023-04-08T19:18:56.319Z,99952.89
2023-04-08T19:21:24.716Z,99954.23
2023-04-08T19:23:53.173Z,99956.02
2023-04-08T19:26:24.058Z,99951.98
2023-04-08T19:28:52.340Z,99950.02
2023-04-08T19:31:21.732Z,99946.06
2023-04-08T19:33:50.256Z,99945.56
2023-04-08T19:36:26.261Z,99944.23
2023-04-08T19:38:54.766Z,99941.48
2023-04-08T19:41:23.310Z,99944.39
2023-04-08T19:43:52.796Z,99942.52
2023-04-08T19:46:21.496Z,99939.77
2023-04-08T19:48:50.140Z,99942.28
2023-04-08T19:51:22.677Z,99941.30
2023-04-08T19:53:56.426Z,99935.70
2023-04-08T19:56:26.591Z,99938.50
2023-04-08T19:58:55.230Z,99938.42
2023-04-08T20:01:23.923Z,99936.14
2023-04-08T20:03:53.141Z,99928.45
2023-04-08T20:06:23.217Z,99927.33
2023-04-08T20:08:53.818Z,99927.35
2023-04-08T20:11:23.234Z,99928.42
2023-04-08T20:13:51.710Z,99924.09
2023-04-08T20:16:21.002Z,99921.32
2023-04-08T20:18:49.536Z,99922.76
2023-04-08T20:21:26.406Z,99922.52
2023-04-08T20:23:54.787Z,99920.74
2023-04-08T20:26:23.014Z,99918.50
2023-04-08T20:28:52.289Z,99916.11
2023-04-08T20:31:21.259Z,99918.76
2023-04-08T20:33:51.212Z,99920.09
2023-04-08T20:36:20.924Z,99918.19
2023-04-08T20:38:49.639Z,99914.35
2023-04-08T20:41:20.387Z,99913.05
2023-04-08T20:43:52.613Z,99915.77
2023-04-08T20:46:22.593Z,99920.84
2023-04-08T20:48:51.752Z,99923.14
2023-04-08T20:51:20.535Z,99920.24
2023-04-08T20:53:48.955Z,99921.80
2023-04-08T20:56:18.122Z,99914.62
2023-04-08T20:58:46.515Z,99907.95
2023-04-08T21:01:14.979Z,99908.17
2023-04-08T21:03:43.591Z,99909.05
2023-04-08T21:06:19.338Z,99911.42
2023-04-08T21:08:49.902Z,99908.69
2023-04-08T21:11:18.822Z,99911.48
2023-04-08T21:13:49.754Z,99913.70
2023-04-08T21:16:19.525Z,99907.87
2023-04-08T21:18:48.102Z,99908.92
2023-04-08T21:21:21.683Z,99912.55
2023-04-08T21:23:51.332Z,99917.01
2023-04-08T21:26:19.803Z,99917.40
2023-04-08T21:28:50.231Z,99921.90
2023-04-08T21:31:19.471Z,99922.38
2023-04-08T21:33:47.860Z,99917.39
2023-04-08T21:36:16.395Z,99912.23
2023-04-08T21:38:45.546Z,99913.91
2023-04-08T21:41:14.439Z,99915.38
2023-04-08T21:43:43.302Z,99911.26
2023-04-08T21:46:11.631Z,99914.01
2023-04-08T21:48:40.078Z,99909.73
2023-04-08T21:51:14.526Z,99910.42
2023-04-08T21:53:43.707Z,99910.88
2023-04-08T21:56:13.584Z,99912.14
2023-04-08T21:58:42.058Z,99908.52
2023-04-08T22:01:15.527Z,99912.71
2023-04-08T22:03:45.852Z,99913.64
2023-04-08T22:06:25.609Z,99912.64
2023-04-08T22:09:00.007Z,99911.38
2023-04-08T22:11:28.781Z,99906.75
2023-04-08T22:13:58.143Z,99905.20
2023-04-08T22:16:27.183Z,99906.82
2023-04-08T22:18:55.631Z,99907.30
2023-04-08T22:21:30.479Z,99904.52
2023-04-08T22:23:59.089Z,99905.23
2023-04-08T22:26:28.124Z,99907.50
2023-04-08T22:29:00.568Z,99909.55
2023-04-08T22:31:30.096Z,99910.27
2023-04-08T22:33:59.928Z,99914.23
2023-04-08T22:36:28.576Z,99910.77
2023-04-08T22:38:58.054Z,99909.42
2023-04-08T22:41:26.700Z,99916.16
2023-04-08T22:43:55.012Z,99915.00
2023-04-08T22:46:24.697Z,99912.50
2023-04-08T22:48:53.514Z,99914.80
2023-04-08T22:51:22.720Z,99914.55
2023-04-08T22:53:51.072Z,99915.58
2023-04-08T22:56:19.292Z,99916.79
2023-04-08T22:58:50.354Z,99914.77
2023-04-08T23:01:22.583Z,99912.35
2023-04-08T23:03:53.246Z,99908.98
2023-04-08T23:06:29.043Z,99910.59
2023-04-08T23:08:58.638Z,99908.72
2023-04-08T23:11:27.316Z,99905.55
2023-04-08T23:13:56.438Z,99907.23
2023-04-08T23:16:24.777Z,99904.80
2023-04-08T23:18:53.661Z,99908.68
2023-04-08T23:21:27.179Z,99908.46
2023-04-08T23:23:55.678Z,99903.82
2023-04-08T23:26:25.280Z,99906.48
2023-04-08T23:28:55.639Z,99907.56
2023-04-08T23:31:24.221Z,99906.02
2023-04-08T23:33:53.663Z,99908.98
2023-04-08T23:36:23.275Z,99911.00
2023-04-08T23:38:51.774Z,99907.09
2023-04-08T23:41:20.743Z,99904.38
2023-04-08T23:43:54.264Z,99899.72
2023-04-08T23:46:23.749Z,99898.42
2023-04-08T23:48:57.829Z,99898.28
2023-04-08T23:51:27.978Z,99894.65
2023-04-08T23:53:56.774Z,99889.95
2023-04-08T23:56:26.083Z,99888.05
2023-04-08T23:58:55.238Z,99887.91
